Edenville, Ohio
Current Conditions -  °F | °C
As of 8:53 AM on Saturday 22 Nov 2014 (Local Time) from KMNN Reporting Station
Haze Haze  
Wind Chill: 23°   Ceiling: 3400
Heat Index: 33°   Visibility: 5mi
Dew Point: 30°   Wind: 14mph
Humidity: 89%   Direction: 190°S
Pressure: 30.22"   Gusts: NA
Location:  40.8054°N, 83.1316°W
Report Text: KMNN 221353Z AUTO 19012KT 5SM BR FEW020 BKN034 OVC049 01/M01 A3022 RMK AO2 FZRAE35 SLP248 P0001 I1001 T00061011 TSNO
Loading
Personal Weather Stations






























Interactive Weather Map New forecast layout! Learn more

10-Day Weather Forecast

Advertisements
Track Severe Weather on mobile